Time;durP1;ratioP1;P1;durP2;ratioP2;P2;SDS_P1;SDS_P2;PMS_P1;PMS_P2;Temp;Humidity;BMP_temperature;BMP_pressure;BME280_temperature;BME280_humidity;BME280_pressure;Samples;Min_cycle;Max_cycle;Signal;HPM_P1;HPM_P2
2022/11/22 00:01:27;;;;;;;;;;;6.90;99.90;;;;;;5000031;28;20293;-74
2022/11/22 00:03:53;;;;;;;;;;;6.90;99.90;;;;;;5001491;28;19958;-74
2022/11/22 00:06:18;;;;;;;;;;;6.90;99.90;;;;;;4996587;28;19917;-74
2022/11/22 00:08:43;;;;;;;;;;;6.90;99.90;;;;;;5000238;28;19918;-74
2022/11/22 00:11:09;;;;;;;;;;;7.00;99.90;;;;;;5002531;28;20369;-74
2022/11/22 00:13:34;;;;;;;;;;;6.90;99.90;;;;;;4999107;28;19917;-74
2022/11/22 00:16:01;;;;;;;;;;;7.00;99.90;;;;;;4986149;28;19914;-72
2022/11/22 00:18:27;;;;;;;;;;;7.00;99.90;;;;;;4998988;28;19924;-71
2022/11/22 00:20:52;;;;;;;;;;;6.90;99.90;;;;;;5001019;28;19918;-72
2022/11/22 00:23:18;;;;;;;;;;;6.90;99.90;;;;;;4981850;28;19921;-72
2022/11/22 00:25:44;;;;;;;;;;;6.90;99.90;;;;;;5003596;28;19914;-72
2022/11/22 00:28:09;;;;;;;;;;;6.80;99.90;;;;;;4983753;28;20290;-71
2022/11/22 00:30:35;;;;;;;;;;;6.80;99.90;;;;;;5000900;28;19923;-72
2022/11/22 00:33:00;;;;;;;;;;;6.80;99.90;;;;;;5001943;28;19919;-72
2022/11/22 00:35:26;;;;;;;;;;;6.80;99.90;;;;;;4980481;28;19921;-72
2022/11/22 00:37:51;;;;;;;;;;;6.80;99.90;;;;;;4982757;28;19922;-71
2022/11/22 00:40:16;;;;;;;;;;;6.80;99.90;;;;;;5000169;28;19917;-72
2022/11/22 00:42:42;;;;;;;;;;;6.70;99.90;;;;;;4997444;28;20290;-72
2022/11/22 00:45:08;;;;;;;;;;;6.70;99.90;;;;;;4999050;28;19921;-72
2022/11/22 00:47:33;;;;;;;;;;;6.70;99.90;;;;;;5001499;28;20373;-72
2022/11/22 00:49:59;;;;;;;;;;;6.60;99.90;;;;;;5004739;28;19918;-73
2022/11/22 00:52:24;;;;;;;;;;;6.60;99.90;;;;;;5003801;28;20720;-72
2022/11/22 00:54:49;;;;;;;;;;;6.60;99.90;;;;;;5000617;28;19918;-72
2022/11/22 00:57:15;;;;;;;;;;;6.50;99.90;;;;;;4999664;28;19925;-74
2022/11/22 00:59:40;;;;;;;;;;;6.50;99.90;;;;;;4999161;28;19918;-73
2022/11/22 01:02:06;;;;;;;;;;;6.50;99.90;;;;;;4997298;28;19941;-72
2022/11/22 01:04:31;;;;;;;;;;;6.50;99.90;;;;;;4997676;28;19957;-72
2022/11/22 01:06:57;;;;;;;;;;;6.50;99.90;;;;;;5000887;28;19921;-72
2022/11/22 01:09:22;;;;;;;;;;;6.50;99.90;;;;;;4984013;28;19917;-74
2022/11/22 01:11:48;;;;;;;;;;;6.50;99.90;;;;;;4983980;28;19948;-74
2022/11/22 01:14:14;;;;;;;;;;;6.60;99.90;;;;;;4983149;28;20003;-73
2022/11/22 01:16:40;;;;;;;;;;;6.60;99.90;;;;;;5000002;28;19913;-74
2022/11/22 01:19:05;;;;;;;;;;;6.50;99.90;;;;;;5001334;28;19935;-74
2022/11/22 01:21:31;;;;;;;;;;;6.50;99.90;;;;;;4998603;28;19917;-74
2022/11/22 01:23:56;;;;;;;;;;;6.50;99.90;;;;;;5001794;28;20444;-74
2022/11/22 01:26:22;;;;;;;;;;;6.50;99.90;;;;;;5002631;28;20012;-74
2022/11/22 01:28:47;;;;;;;;;;;6.60;99.90;;;;;;5002754;28;19921;-74
2022/11/22 01:31:13;;;;;;;;;;;6.60;99.90;;;;;;4998615;28;20297;-74
2022/11/22 01:33:38;;;;;;;;;;;6.60;99.90;;;;;;4999767;28;20060;-74
2022/11/22 01:36:04;;;;;;;;;;;6.60;99.90;;;;;;4980648;28;19917;-74
2022/11/22 01:38:29;;;;;;;;;;;6.60;99.90;;;;;;4983916;28;19928;-75
2022/11/22 01:40:55;;;;;;;;;;;6.60;99.90;;;;;;4980583;28;19913;-74
2022/11/22 01:43:25;;;;;;;;;;;6.60;99.90;;;;;;5000965;28;19913;-74
2022/11/22 01:45:55;;;;;;;;;;;6.60;99.90;;;;;;4984568;28;20394;-74
2022/11/22 01:48:20;;;;;;;;;;;6.50;99.90;;;;;;4992458;28;19945;-74
2022/11/22 01:50:47;;;;;;;;;;;6.50;99.90;;;;;;5002393;28;19918;-75
2022/11/22 01:53:15;;;;;;;;;;;6.50;99.90;;;;;;5001742;28;19921;-74
2022/11/22 01:55:41;;;;;;;;;;;6.50;99.90;;;;;;4999841;28;19921;-75
2022/11/22 01:58:08;;;;;;;;;;;6.50;99.90;;;;;;4982241;28;19921;-74
2022/11/22 02:00:34;;;;;;;;;;;6.50;99.90;;;;;;4983523;28;20333;-73
2022/11/22 02:03:00;;;;;;;;;;;6.40;99.90;;;;;;4998386;28;19941;-74
2022/11/22 02:05:29;;;;;;;;;;;6.50;99.90;;;;;;5001555;28;19924;-73
2022/11/22 02:08:00;;;;;;;;;;;6.40;99.90;;;;;;4995924;28;19914;-74
2022/11/22 02:10:26;;;;;;;;;;;6.40;99.90;;;;;;4998658;28;19942;-74
2022/11/22 02:12:53;;;;;;;;;;;6.40;99.90;;;;;;5001822;28;19917;-74
2022/11/22 02:15:18;;;;;;;;;;;6.40;99.90;;;;;;5003003;28;19940;-75
2022/11/22 02:17:44;;;;;;;;;;;6.30;99.90;;;;;;5020841;28;19972;-76
2022/11/22 02:20:10;;;;;;;;;;;6.30;99.90;;;;;;5026449;28;20351;-75
2022/11/22 02:22:41;;;;;;;;;;;6.30;99.90;;;;;;4998137;28;20466;-73
2022/11/22 02:25:12;;;;;;;;;;;6.30;99.90;;;;;;5000460;28;19971;-74
2022/11/22 02:27:38;;;;;;;;;;;6.30;99.90;;;;;;4984223;28;20009;-73
2022/11/22 02:30:04;;;;;;;;;;;6.40;99.90;;;;;;5001279;28;19953;-73
2022/11/22 02:32:29;;;;;;;;;;;6.30;99.90;;;;;;4980934;28;19949;-72
2022/11/22 02:34:55;;;;;;;;;;;6.30;99.90;;;;;;5001641;28;19930;-74
2022/11/22 02:37:22;;;;;;;;;;;6.30;99.90;;;;;;4997614;28;19921;-74
2022/11/22 02:39:50;;;;;;;;;;;6.30;99.90;;;;;;5002001;28;20013;-74
2022/11/22 02:42:16;;;;;;;;;;;6.30;99.90;;;;;;5003939;28;19965;-74
2022/11/22 02:44:41;;;;;;;;;;;6.30;99.90;;;;;;5011870;28;19925;-75
2022/11/22 02:47:07;;;;;;;;;;;6.20;99.90;;;;;;5009589;28;19917;-74
2022/11/22 02:49:33;;;;;;;;;;;6.20;99.90;;;;;;5000200;28;19917;-74
2022/11/22 02:51:58;;;;;;;;;;;6.10;99.90;;;;;;4998134;28;19921;-74
2022/11/22 02:54:24;;;;;;;;;;;6.10;99.90;;;;;;4983590;28;19913;-74
2022/11/22 02:56:49;;;;;;;;;;;6.10;99.90;;;;;;4996964;28;19924;-74
2022/11/22 02:59:14;;;;;;;;;;;6.10;99.90;;;;;;4982623;28;19975;-74
2022/11/22 03:01:41;;;;;;;;;;;6.10;99.90;;;;;;4998674;28;19968;-74
2022/11/22 03:04:06;;;;;;;;;;;6.10;99.90;;;;;;4998542;28;19920;-74
2022/11/22 03:06:32;;;;;;;;;;;6.00;99.90;;;;;;5001126;28;19996;-74
2022/11/22 03:08:57;;;;;;;;;;;6.00;99.90;;;;;;5000758;28;20445;-74
2022/11/22 03:11:23;;;;;;;;;;;6.00;99.90;;;;;;4983190;28;19925;-73
2022/11/22 03:13:48;;;;;;;;;;;6.00;99.90;;;;;;4985848;28;20020;-73
2022/11/22 03:16:14;;;;;;;;;;;6.00;99.90;;;;;;5002192;28;19928;-74
2022/11/22 03:18:39;;;;;;;;;;;6.00;99.90;;;;;;4982508;28;19922;-74
2022/11/22 03:21:06;;;;;;;;;;;5.90;99.90;;;;;;5001834;28;19971;-73
2022/11/22 03:23:31;;;;;;;;;;;5.90;99.90;;;;;;5002105;28;19920;-74
2022/11/22 03:25:57;;;;;;;;;;;5.90;99.90;;;;;;5003892;28;19913;-74
2022/11/22 03:28:22;;;;;;;;;;;5.90;99.90;;;;;;5000608;28;19914;-73
2022/11/22 03:30:48;;;;;;;;;;;5.90;99.90;;;;;;5003225;28;19913;-74
2022/11/22 03:33:13;;;;;;;;;;;5.90;99.90;;;;;;5001343;28;19937;-73
2022/11/22 03:35:39;;;;;;;;;;;5.80;99.90;;;;;;5001209;28;20583;-74
2022/11/22 03:38:05;;;;;;;;;;;5.80;99.90;;;;;;5002596;28;20294;-74
2022/11/22 03:40:31;;;;;;;;;;;5.80;99.90;;;;;;5005745;28;19918;-73
2022/11/22 03:42:57;;;;;;;;;;;5.70;99.90;;;;;;5016526;28;20307;-74
2022/11/22 03:45:23;;;;;;;;;;;5.70;99.90;;;;;;5004881;28;19918;-74
2022/11/22 03:47:48;;;;;;;;;;;5.70;99.90;;;;;;5003798;28;19918;-74
2022/11/22 03:50:14;;;;;;;;;;;5.70;99.90;;;;;;5000545;28;20012;-73
2022/11/22 03:52:40;;;;;;;;;;;5.60;99.90;;;;;;5003992;28;19925;-74
2022/11/22 03:55:05;;;;;;;;;;;5.70;99.90;;;;;;5001472;28;19913;-74
2022/11/22 03:57:31;;;;;;;;;;;5.60;99.90;;;;;;4984425;28;20004;-74
2022/11/22 03:59:56;;;;;;;;;;;5.60;99.90;;;;;;4982355;28;20414;-74
2022/11/22 04:02:22;;;;;;;;;;;5.60;99.90;;;;;;5002867;28;19913;-74
2022/11/22 04:04:47;;;;;;;;;;;5.60;99.90;;;;;;4998891;28;20005;-73
2022/11/22 04:07:13;;;;;;;;;;;5.60;99.90;;;;;;4985802;28;19914;-74
2022/11/22 04:09:38;;;;;;;;;;;5.60;99.90;;;;;;4981402;28;20586;-74
2022/11/22 04:12:04;;;;;;;;;;;5.60;99.90;;;;;;5001578;28;19927;-74
2022/11/22 04:17:39;;;;;;;;;;;5.50;99.90;;;;;;5001477;28;19929;-74
2022/11/22 04:22:43;;;;;;;;;;;5.50;99.90;;;;;;5005304;28;19920;-74
2022/11/22 04:25:14;;;;;;;;;;;5.50;99.90;;;;;;4998110;28;20650;-73
2022/11/22 04:27:40;;;;;;;;;;;5.40;99.90;;;;;;5004243;28;20294;-74
2022/11/22 04:30:06;;;;;;;;;;;5.40;99.90;;;;;;4982922;28;19914;-74
2022/11/22 04:32:46;;;;;;;;;;;5.40;99.90;;;;;;5000463;28;19920;-74
2022/11/22 04:35:13;;;;;;;;;;;5.40;99.90;;;;;;4984313;28;19964;-74
2022/11/22 04:37:39;;;;;;;;;;;5.40;99.90;;;;;;5002030;28;19929;-72
2022/11/22 04:40:04;;;;;;;;;;;5.40;99.90;;;;;;5015347;28;19918;-73
2022/11/22 04:45:14;;;;;;;;;;;5.40;99.90;;;;;;4999923;28;19925;-74
2022/11/22 04:47:57;;;;;;;;;;;5.30;99.90;;;;;;5000994;28;19913;-73
2022/11/22 04:53:07;;;;;;;;;;;5.30;99.90;;;;;;5001973;28;19928;-74
2022/11/22 04:55:33;;;;;;;;;;;5.40;99.90;;;;;;5000549;28;20004;-74
2022/11/22 04:57:58;;;;;;;;;;;5.30;99.90;;;;;;5003834;28;19921;-73
2022/11/22 05:00:26;;;;;;;;;;;5.30;99.90;;;;;;4998582;28;19917;-74
2022/11/22 05:02:51;;;;;;;;;;;5.30;99.90;;;;;;4984139;28;20003;-74
2022/11/22 05:05:17;;;;;;;;;;;5.30;99.90;;;;;;5001708;28;19996;-74
2022/11/22 05:07:42;;;;;;;;;;;5.30;99.90;;;;;;4998852;28;19921;-72
2022/11/22 05:10:08;;;;;;;;;;;5.30;99.90;;;;;;5003413;28;19914;-74
2022/11/22 05:12:34;;;;;;;;;;;5.20;99.90;;;;;;5004751;28;19914;-73
2022/11/22 05:14:59;;;;;;;;;;;5.20;99.90;;;;;;5002649;28;19951;-74
2022/11/22 05:17:25;;;;;;;;;;;5.20;99.90;;;;;;5000638;28;19924;-74
2022/11/22 05:19:50;;;;;;;;;;;5.20;99.90;;;;;;4979648;28;20293;-74
2022/11/22 05:22:16;;;;;;;;;;;5.10;99.90;;;;;;5001552;28;19920;-73
2022/11/22 05:24:41;;;;;;;;;;;5.10;99.90;;;;;;5002076;28;19961;-74
2022/11/22 05:27:07;;;;;;;;;;;5.10;99.90;;;;;;4984218;28;19920;-74
2022/11/22 05:29:32;;;;;;;;;;;5.10;99.90;;;;;;4981468;28;19940;-74
2022/11/22 05:31:58;;;;;;;;;;;5.10;99.90;;;;;;4983213;28;19924;-74
2022/11/22 05:34:23;;;;;;;;;;;5.10;99.90;;;;;;4984404;28;20271;-74
2022/11/22 05:36:48;;;;;;;;;;;5.00;99.90;;;;;;5010087;28;19921;-75
2022/11/22 05:39:14;;;;;;;;;;;5.10;99.90;;;;;;5008603;28;20059;-72
2022/11/22 05:41:54;;;;;;;;;;;5.10;99.90;;;;;;4998042;28;19928;-73
2022/11/22 05:44:20;;;;;;;;;;;5.20;99.90;;;;;;5000201;28;19917;-74
2022/11/22 05:46:45;;;;;;;;;;;5.30;99.90;;;;;;5000222;28;20007;-74
2022/11/22 05:49:11;;;;;;;;;;;5.20;99.90;;;;;;4999986;28;19925;-74
2022/11/22 05:51:36;;;;;;;;;;;5.30;99.90;;;;;;5002291;28;19921;-74
2022/11/22 05:54:02;;;;;;;;;;;5.30;99.90;;;;;;4991676;28;19925;-74
2022/11/22 05:56:27;;;;;;;;;;;5.40;99.90;;;;;;5004611;28;20526;-73
2022/11/22 05:58:53;;;;;;;;;;;5.40;99.90;;;;;;4994976;28;20332;-75
2022/11/22 06:01:20;;;;;;;;;;;5.40;99.90;;;;;;5007881;28;20014;-74
2022/11/22 06:03:45;;;;;;;;;;;5.40;99.90;;;;;;5010465;28;19928;-74
2022/11/22 06:06:11;;;;;;;;;;;5.40;99.90;;;;;;5008288;28;19914;-74
2022/11/22 06:08:39;;;;;;;;;;;5.50;99.90;;;;;;5006083;28;20386;-74
2022/11/22 06:11:18;;;;;;;;;;;5.50;99.90;;;;;;5005497;28;19924;-74
2022/11/22 06:13:45;;;;;;;;;;;5.40;99.90;;;;;;5002500;28;19914;-76
2022/11/22 06:16:11;;;;;;;;;;;5.40;99.90;;;;;;5005352;28;19921;-74
2022/11/22 06:18:36;;;;;;;;;;;5.30;99.90;;;;;;5005271;28;19921;-75
2022/11/22 06:21:03;;;;;;;;;;;5.30;99.90;;;;;;5005692;28;19925;-75
2022/11/22 06:23:28;;;;;;;;;;;5.30;99.90;;;;;;4999014;28;20060;-74
2022/11/22 06:25:55;;;;;;;;;;;5.30;99.90;;;;;;5003771;28;19982;-74
2022/11/22 06:28:20;;;;;;;;;;;5.30;99.90;;;;;;5020315;28;19917;-75
2022/11/22 06:30:46;;;;;;;;;;;5.20;99.90;;;;;;5017509;28;19960;-75
2022/11/22 06:33:11;;;;;;;;;;;5.20;99.90;;;;;;5023063;28;19917;-73
2022/11/22 06:35:36;;;;;;;;;;;5.20;99.90;;;;;;5014986;28;19956;-74
2022/11/22 06:38:02;;;;;;;;;;;5.30;99.90;;;;;;5014539;28;19948;-74
2022/11/22 06:40:27;;;;;;;;;;;5.30;99.90;;;;;;5004065;28;19932;-74
2022/11/22 06:42:53;;;;;;;;;;;5.30;99.90;;;;;;5000256;28;19917;-73
2022/11/22 06:45:18;;;;;;;;;;;5.30;99.90;;;;;;5002221;28;20286;-74
2022/11/22 06:47:44;;;;;;;;;;;5.30;99.90;;;;;;5000375;28;19921;-75
2022/11/22 06:50:09;;;;;;;;;;;5.30;99.90;;;;;;5003195;28;19914;-74
2022/11/22 06:52:35;;;;;;;;;;;5.40;99.90;;;;;;5011881;28;20017;-73
2022/11/22 06:55:01;;;;;;;;;;;5.40;99.90;;;;;;5002389;28;20665;-73
2022/11/22 06:57:26;;;;;;;;;;;5.40;99.90;;;;;;5009837;28;19924;-74
2022/11/22 06:59:52;;;;;;;;;;;5.40;99.90;;;;;;5008347;28;19949;-74
2022/11/22 07:02:17;;;;;;;;;;;5.50;99.90;;;;;;5009887;28;19936;-75
2022/11/22 07:04:43;;;;;;;;;;;5.50;99.90;;;;;;5008290;28;19924;-72
2022/11/22 07:07:08;;;;;;;;;;;5.40;99.90;;;;;;5008266;28;19964;-74
2022/11/22 07:09:34;;;;;;;;;;;5.40;99.90;;;;;;5008512;28;19963;-74
2022/11/22 07:11:59;;;;;;;;;;;5.40;99.90;;;;;;5008962;28;19917;-74
2022/11/22 07:14:25;;;;;;;;;;;5.40;99.90;;;;;;5008554;28;19917;-73
2022/11/22 07:16:50;;;;;;;;;;;5.30;99.90;;;;;;5010261;28;19921;-74
2022/11/22 07:19:16;;;;;;;;;;;5.30;99.90;;;;;;5005001;28;19940;-75
2022/11/22 07:21:41;;;;;;;;;;;5.40;99.90;;;;;;5009009;28;19917;-73
2022/11/22 07:24:07;;;;;;;;;;;5.40;99.90;;;;;;5010070;28;20283;-74
2022/11/22 07:26:32;;;;;;;;;;;5.50;99.90;;;;;;5008392;28;19914;-74
2022/11/22 07:28:58;;;;;;;;;;;5.50;99.90;;;;;;5008750;28;20427;-75
2022/11/22 07:31:24;;;;;;;;;;;5.50;99.90;;;;;;5008933;28;19917;-75
2022/11/22 07:33:50;;;;;;;;;;;5.60;99.90;;;;;;5011664;28;20427;-75
2022/11/22 07:36:17;;;;;;;;;;;5.60;99.90;;;;;;5013890;28;19917;-74
2022/11/22 07:38:42;;;;;;;;;;;5.60;99.90;;;;;;5013512;28;20332;-73
2022/11/22 07:41:08;;;;;;;;;;;5.60;99.90;;;;;;5005298;28;20024;-73
2022/11/22 07:43:33;;;;;;;;;;;5.60;99.90;;;;;;5006362;28;19925;-74
2022/11/22 07:45:59;;;;;;;;;;;5.60;99.90;;;;;;5010394;28;19921;-72
2022/11/22 07:48:25;;;;;;;;;;;5.60;99.90;;;;;;5009084;28;19913;-72
2022/11/22 07:50:50;;;;;;;;;;;5.70;99.90;;;;;;5008132;28;19922;-72
2022/11/22 07:53:15;;;;;;;;;;;5.60;99.90;;;;;;5008322;28;20026;-72
2022/11/22 07:55:41;;;;;;;;;;;5.70;99.90;;;;;;5011963;28;19924;-72
2022/11/22 07:58:06;;;;;;;;;;;5.70;99.90;;;;;;5008244;28;19925;-72
2022/11/22 08:00:32;;;;;;;;;;;5.70;99.90;;;;;;4996508;28;20024;-72
2022/11/22 08:02:58;;;;;;;;;;;5.70;99.90;;;;;;5002514;28;19928;-72
2022/11/22 08:05:23;;;;;;;;;;;5.80;99.90;;;;;;4994489;28;19927;-72
2022/11/22 08:07:50;;;;;;;;;;;5.80;99.90;;;;;;5006865;28;20004;-72
2022/11/22 08:10:16;;;;;;;;;;;5.90;99.90;;;;;;5007110;28;20293;-71
2022/11/22 08:12:41;;;;;;;;;;;5.80;99.90;;;;;;4995827;28;20016;-74
2022/11/22 08:15:07;;;;;;;;;;;5.80;99.90;;;;;;5007171;28;19960;-74
2022/11/22 08:17:33;;;;;;;;;;;5.90;99.90;;;;;;5009010;28;19921;-74
2022/11/22 08:19:58;;;;;;;;;;;5.90;99.90;;;;;;5007945;28;19917;-74
2022/11/22 08:22:24;;;;;;;;;;;5.90;99.90;;;;;;4988530;28;20376;-73
2022/11/22 08:24:49;;;;;;;;;;;5.90;99.90;;;;;;5007271;28;19924;-74
2022/11/22 08:27:15;;;;;;;;;;;5.90;99.90;;;;;;5007810;28;19917;-73
2022/11/22 08:29:40;;;;;;;;;;;5.90;99.90;;;;;;5007193;28;19960;-74
2022/11/22 08:32:06;;;;;;;;;;;6.00;99.90;;;;;;4999772;28;19917;-74
2022/11/22 08:34:31;;;;;;;;;;;6.00;99.90;;;;;;5013408;28;20400;-74
2022/11/22 08:36:57;;;;;;;;;;;6.10;99.90;;;;;;5009279;28;19952;-74
2022/11/22 08:39:22;;;;;;;;;;;6.00;99.90;;;;;;5005299;28;19920;-73
2022/11/22 08:41:48;;;;;;;;;;;6.00;99.90;;;;;;5010971;28;19920;-74
2022/11/22 08:44:13;;;;;;;;;;;6.10;99.90;;;;;;5008772;28;19913;-74
2022/11/22 08:46:39;;;;;;;;;;;6.10;99.90;;;;;;5006049;28;19913;-74
2022/11/22 08:49:05;;;;;;;;;;;6.10;99.90;;;;;;5007124;28;19978;-69
2022/11/22 08:51:31;;;;;;;;;;;6.10;99.90;;;;;;4989762;28;19921;-75
2022/11/22 08:53:57;;;;;;;;;;;6.10;99.90;;;;;;5006640;28;19909;-75
2022/11/22 08:56:22;;;;;;;;;;;6.20;99.90;;;;;;5005703;28;19926;-73
2022/11/22 08:58:48;;;;;;;;;;;6.20;99.90;;;;;;5001499;28;20390;-75
2022/11/22 09:01:14;;;;;;;;;;;6.20;99.90;;;;;;4996641;28;20290;-75
2022/11/22 09:03:41;;;;;;;;;;;6.30;99.90;;;;;;5000738;28;20326;-74
2022/11/22 09:06:07;;;;;;;;;;;6.20;99.90;;;;;;5006596;28;20423;-72
2022/11/22 09:08:34;;;;;;;;;;;6.20;99.90;;;;;;5007215;28;19936;-75
2022/11/22 09:11:00;;;;;;;;;;;6.20;99.90;;;;;;4997342;28;20665;-74
2022/11/22 09:13:26;;;;;;;;;;;6.20;99.90;;;;;;5006519;28;20362;-75
2022/11/22 09:15:51;;;;;;;;;;;6.20;99.90;;;;;;5006094;28;19913;-75
2022/11/22 09:18:17;;;;;;;;;;;6.20;99.90;;;;;;5001668;28;19913;-75
2022/11/22 09:20:42;;;;;;;;;;;6.30;99.90;;;;;;5006440;28;20346;-75
2022/11/22 09:23:08;;;;;;;;;;;6.30;99.90;;;;;;5006458;28;19920;-72
2022/11/22 09:25:33;;;;;;;;;;;6.40;99.90;;;;;;4997220;28;20353;-75
2022/11/22 09:28:01;;;;;;;;;;;6.30;99.90;;;;;;5007329;28;19916;-75
2022/11/22 09:30:27;;;;;;;;;;;6.40;99.90;;;;;;5009908;28;19948;-74
2022/11/22 09:32:53;;;;;;;;;;;6.40;99.90;;;;;;4997544;28;19921;-74
2022/11/22 09:35:19;;;;;;;;;;;6.50;99.90;;;;;;5006874;28;19992;-75
2022/11/22 09:37:44;;;;;;;;;;;6.40;99.90;;;;;;5004733;28;19913;-75
2022/11/22 09:40:10;;;;;;;;;;;6.50;99.90;;;;;;5012273;28;19914;-73
2022/11/22 09:42:41;;;;;;;;;;;6.50;99.90;;;;;;4998391;28;19909;-74
2022/11/22 09:45:07;;;;;;;;;;;6.60;99.90;;;;;;4997517;28;20013;-75
2022/11/22 09:47:44;;;;;;;;;;;6.60;99.90;;;;;;5006191;28;20008;-72
2022/11/22 09:50:19;;;;;;;;;;;6.60;99.90;;;;;;4992225;28;19936;-75
2022/11/22 09:52:45;;;;;;;;;;;6.60;99.90;;;;;;5004778;28;19984;-75
2022/11/22 09:55:19;;;;;;;;;;;6.70;99.90;;;;;;5005816;28;20340;-75
2022/11/22 09:57:47;;;;;;;;;;;6.70;99.90;;;;;;4994162;28;20296;-75
2022/11/22 10:00:17;;;;;;;;;;;6.70;99.90;;;;;;5006512;28;19917;-74
2022/11/22 10:02:46;;;;;;;;;;;6.70;99.90;;;;;;4996486;28;19924;-75
2022/11/22 10:05:14;;;;;;;;;;;6.70;99.90;;;;;;5005625;28;19918;-73
2022/11/22 10:07:42;;;;;;;;;;;6.80;99.90;;;;;;5005638;28;20068;-72
2022/11/22 10:10:13;;;;;;;;;;;6.80;99.90;;;;;;4991979;28;20004;-75
2022/11/22 10:12:40;;;;;;;;;;;6.70;99.90;;;;;;4998510;28;19918;-75
2022/11/22 10:15:24;;;;;;;;;;;6.70;99.90;;;;;;5006490;28;19929;-72
2022/11/22 10:17:54;;;;;;;;;;;6.70;99.90;;;;;;5005254;28;19917;-75
2022/11/22 10:20:21;;;;;;;;;;;6.70;99.90;;;;;;5006340;28;19937;-74
2022/11/22 10:22:47;;;;;;;;;;;6.70;99.90;;;;;;5004088;28;19980;-74
2022/11/22 10:25:31;;;;;;;;;;;6.70;99.90;;;;;;5009944;28;19928;-73
2022/11/22 10:28:04;;;;;;;;;;;6.80;99.90;;;;;;4993809;28;19921;-74
2022/11/22 10:30:33;;;;;;;;;;;6.70;99.90;;;;;;5008398;28;19980;-74
2022/11/22 10:33:14;;;;;;;;;;;6.80;99.90;;;;;;5010159;28;19924;-73
2022/11/22 10:35:54;;;;;;;;;;;6.80;99.90;;;;;;5009523;28;19971;-74
2022/11/22 10:38:27;;;;;;;;;;;6.70;99.90;;;;;;5006922;28;19921;-72
2022/11/22 10:40:55;;;;;;;;;;;6.70;99.90;;;;;;5006657;28;20352;-71
2022/11/22 10:43:21;;;;;;;;;;;6.80;99.90;;;;;;5013199;28;19913;-72
2022/11/22 10:45:49;;;;;;;;;;;6.80;99.90;;;;;;5017361;28;20393;-70
2022/11/22 10:48:33;;;;;;;;;;;6.80;99.90;;;;;;5018332;28;19948;-71
2022/11/22 10:50:58;;;;;;;;;;;6.80;99.90;;;;;;5018648;28;20475;-72
2022/11/22 10:53:29;;;;;;;;;;;6.80;99.90;;;;;;5004494;28;19921;-72
2022/11/22 10:56:04;;;;;;;;;;;6.80;99.90;;;;;;4998565;28;19925;-73
2022/11/22 10:58:30;;;;;;;;;;;6.80;99.90;;;;;;5007619;28;20003;-72
2022/11/22 11:00:58;;;;;;;;;;;6.80;99.90;;;;;;5008346;28;20004;-72
2022/11/22 11:03:35;;;;;;;;;;;6.80;99.90;;;;;;5007163;28;19940;-71
2022/11/22 11:06:06;;;;;;;;;;;6.80;99.90;;;;;;5001466;28;19964;-70
2022/11/22 11:08:35;;;;;;;;;;;6.80;99.90;;;;;;5001951;28;19917;-72
2022/11/22 11:11:01;;;;;;;;;;;6.80;99.90;;;;;;5000306;28;20000;-72
2022/11/22 11:13:32;;;;;;;;;;;6.80;99.90;;;;;;4998635;28;19917;-71
2022/11/22 11:15:59;;;;;;;;;;;6.90;99.90;;;;;;5000665;28;20340;-71
2022/11/22 11:18:32;;;;;;;;;;;6.90;99.90;;;;;;5005574;28;19953;-71
2022/11/22 11:20:57;;;;;;;;;;;6.90;99.90;;;;;;4997252;28;19918;-71
2022/11/22 11:23:22;;;;;;;;;;;6.90;99.90;;;;;;5005692;28;20007;-71
2022/11/22 11:25:49;;;;;;;;;;;7.00;99.90;;;;;;4992458;28;20464;-71
2022/11/22 11:28:20;;;;;;;;;;;7.00;99.90;;;;;;4994892;28;19913;-72
2022/11/22 11:30:47;;;;;;;;;;;7.00;99.90;;;;;;5007454;28;20301;-71
2022/11/22 11:33:18;;;;;;;;;;;7.00;99.90;;;;;;4994992;28;20008;-73
2022/11/22 11:35:45;;;;;;;;;;;7.00;99.90;;;;;;5007040;28;19913;-74
2022/11/22 11:38:30;;;;;;;;;;;7.00;99.90;;;;;;5006952;28;19921;-73
2022/11/22 11:40:55;;;;;;;;;;;7.10;99.90;;;;;;4999451;28;19924;-73
2022/11/22 11:43:22;;;;;;;;;;;7.10;99.90;;;;;;4998019;28;19917;-73
2022/11/22 11:45:48;;;;;;;;;;;7.10;99.90;;;;;;5007736;28;20263;-74
2022/11/22 11:48:26;;;;;;;;;;;7.10;99.90;;;;;;5007404;28;19918;-73
2022/11/22 11:50:51;;;;;;;;;;;7.10;99.90;;;;;;5009469;28;20012;-73
2022/11/22 11:53:23;;;;;;;;;;;7.20;99.90;;;;;;5009528;28;20005;-73
2022/11/22 11:55:49;;;;;;;;;;;7.10;99.90;;;;;;5006968;28;19917;-74
2022/11/22 11:58:18;;;;;;;;;;;7.20;99.90;;;;;;5007139;28;20505;-74
2022/11/22 12:00:44;;;;;;;;;;;7.10;99.90;;;;;;5007171;28;20710;-74
2022/11/22 12:03:11;;;;;;;;;;;7.20;99.90;;;;;;5007003;28;19925;-74
2022/11/22 12:05:36;;;;;;;;;;;7.20;99.90;;;;;;4997377;28;19920;-74
2022/11/22 12:08:02;;;;;;;;;;;7.30;99.90;;;;;;5003403;28;19922;-73
2022/11/22 12:10:31;;;;;;;;;;;7.20;99.90;;;;;;5006622;28;20008;-72
2022/11/22 12:12:59;;;;;;;;;;;7.20;99.90;;;;;;4995656;28;21109;-73
2022/11/22 12:15:42;;;;;;;;;;;7.20;99.90;;;;;;5010650;28;19917;-73
2022/11/22 12:18:26;;;;;;;;;;;7.20;99.90;;;;;;5001308;28;19929;-72
2022/11/22 12:21:11;;;;;;;;;;;7.20;99.90;;;;;;5005191;28;19917;-74
2022/11/22 12:23:41;;;;;;;;;;;7.20;99.90;;;;;;5005563;28;19944;-72
2022/11/22 12:26:06;;;;;;;;;;;7.20;99.90;;;;;;5007892;28;19921;-73
2022/11/22 12:28:32;;;;;;;;;;;7.20;99.90;;;;;;5007086;28;19914;-73
2022/11/22 12:31:00;;;;;;;;;;;7.30;99.90;;;;;;5006681;28;20338;-73
2022/11/22 12:33:29;;;;;;;;;;;7.30;99.90;;;;;;5007657;28;19914;-73
2022/11/22 12:35:55;;;;;;;;;;;7.40;99.90;;;;;;5007843;28;19964;-74
2022/11/22 12:38:26;;;;;;;;;;;7.50;99.90;;;;;;4996800;28;19929;-74
2022/11/22 12:40:52;;;;;;;;;;;7.60;99.90;;;;;;5004568;28;19920;-73
2022/11/22 12:43:23;;;;;;;;;;;7.60;99.90;;;;;;5007028;28;19917;-73
2022/11/22 12:45:51;;;;;;;;;;;7.60;99.90;;;;;;4996199;28;19944;-73
2022/11/22 12:48:27;;;;;;;;;;;7.60;99.90;;;;;;5005701;28;19967;-73
2022/11/22 12:50:54;;;;;;;;;;;7.70;99.90;;;;;;4999177;28;19960;-71
2022/11/22 12:53:20;;;;;;;;;;;7.70;99.90;;;;;;5007683;28;19913;-74
2022/11/22 12:56:07;;;;;;;;;;;7.70;99.90;;;;;;5009324;28;19925;-74
2022/11/22 12:58:36;;;;;;;;;;;7.80;99.90;;;;;;5008055;28;19925;-71
2022/11/22 13:01:02;;;;;;;;;;;7.70;99.90;;;;;;5000606;28;20293;-71
2022/11/22 13:03:40;;;;;;;;;;;7.80;99.90;;;;;;4997540;28;19923;-72
2022/11/22 13:06:07;;;;;;;;;;;7.80;99.90;;;;;;5006272;28;19981;-71
2022/11/22 13:08:39;;;;;;;;;;;7.80;99.90;;;;;;4993314;28;19918;-72
2022/11/22 13:11:11;;;;;;;;;;;7.80;99.90;;;;;;5003497;28;19921;-71
2022/11/22 13:13:38;;;;;;;;;;;7.80;99.90;;;;;;5009416;28;20016;-71
2022/11/22 13:16:07;;;;;;;;;;;7.80;99.90;;;;;;5008331;28;19917;-71
2022/11/22 13:18:35;;;;;;;;;;;7.80;99.90;;;;;;5005250;28;20411;-71
2022/11/22 13:21:19;;;;;;;;;;;7.80;99.90;;;;;;5006531;28;19917;-71
2022/11/22 13:23:51;;;;;;;;;;;7.80;99.90;;;;;;5003725;28;19921;-71
2022/11/22 13:26:28;;;;;;;;;;;7.80;99.90;;;;;;5006572;28;20382;-74
2022/11/22 13:28:54;;;;;;;;;;;7.80;99.90;;;;;;5006490;28;19921;-72
2022/11/22 13:31:20;;;;;;;;;;;7.80;99.90;;;;;;4996354;28;19984;-72
2022/11/22 13:33:59;;;;;;;;;;;7.90;99.90;;;;;;4996644;28;19924;-73
2022/11/22 13:36:27;;;;;;;;;;;7.90;99.90;;;;;;5004814;28;19918;-74
2022/11/22 13:38:53;;;;;;;;;;;7.80;99.90;;;;;;5005323;28;19924;-74
2022/11/22 13:41:45;;;;;;;;;;;7.80;99.90;;;;;;5006373;28;19918;-75
2022/11/22 13:44:17;;;;;;;;;;;7.80;99.90;;;;;;4989934;28;19967;-74
2022/11/22 13:46:51;;;;;;;;;;;7.80;99.90;;;;;;5006046;28;20293;-74
2022/11/22 13:49:16;;;;;;;;;;;7.80;99.90;;;;;;5004320;28;19913;-74
2022/11/22 13:51:49;;;;;;;;;;;7.80;99.90;;;;;;5005445;28;19928;-74
2022/11/22 13:54:33;;;;;;;;;;;7.80;99.90;;;;;;5003187;28;20658;-76
2022/11/22 13:57:00;;;;;;;;;;;7.80;99.90;;;;;;5006093;28;19925;-75
2022/11/22 13:59:26;;;;;;;;;;;7.90;99.90;;;;;;5007625;28;19922;-74
2022/11/22 14:01:56;;;;;;;;;;;7.90;99.90;;;;;;5010678;28;19914;-74
2022/11/22 14:04:25;;;;;;;;;;;7.90;99.90;;;;;;5008035;28;19924;-75
2022/11/22 14:07:03;;;;;;;;;;;7.90;99.90;;;;;;5000465;28;19914;-74
2022/11/22 14:09:58;;;;;;;;;;;7.90;99.90;;;;;;5005283;28;20336;-73
2022/11/22 14:12:43;;;;;;;;;;;7.80;99.90;;;;;;4976156;28;20016;-73
2022/11/22 14:15:28;;;;;;;;;;;7.90;99.90;;;;;;4994096;28;19925;-74
2022/11/22 14:17:56;;;;;;;;;;;7.80;99.90;;;;;;5002716;28;19921;-75
2022/11/22 14:20:42;;;;;;;;;;;7.80;99.90;;;;;;5004701;28;19928;-75
2022/11/22 14:23:25;;;;;;;;;;;7.80;99.90;;;;;;5004449;28;19979;-75
2022/11/22 14:26:03;;;;;;;;;;;7.80;99.90;;;;;;5012918;28;19913;-75
2022/11/22 14:28:38;;;;;;;;;;;7.80;99.90;;;;;;5004870;28;19949;-74
2022/11/22 14:31:12;;;;;;;;;;;7.80;99.90;;;;;;5002519;28;19995;-75
2022/11/22 14:33:57;;;;;;;;;;;7.80;99.90;;;;;;5001021;28;19953;-75
2022/11/22 14:36:23;;;;;;;;;;;7.80;99.90;;;;;;5000691;28;20034;-74
2022/11/22 14:38:48;;;;;;;;;;;7.80;99.90;;;;;;5005353;28;19968;-74
2022/11/22 14:41:32;;;;;;;;;;;7.80;99.90;;;;;;5005077;28;20289;-73
2022/11/22 14:44:04;;;;;;;;;;;7.80;99.90;;;;;;4989939;28;19936;-75
2022/11/22 14:46:38;;;;;;;;;;;7.80;99.90;;;;;;5004667;28;19956;-74